Recommended Posts

Help AVSIM continue to serve you!
Please donate today!

Hi,Not sure what the problem is. I just tried and got this:AS:VTBS 141330Z 06006KT 010V120 9999 FEW025 BKN040 BKN120 27/22 Q1012 NOSIGADDS:VTBS 141400Z 07006KT 010V140 9999 FEW025 BKN040 BKN120 27/22 Q1013 NOSIGIt could be the timing of the data reports at the time you tried. Please let us know if this keeps happening.Thanks!Jimhttp://www.hifisim.com/banners/hifi-community-sigbanner.jpghttp://www.hifisim.com/

Share this post


Link to post
Share on other sites

When I try to fetch VTBS I get the error "No match on ID"I can take a screenshot if needed.My complete_airport_list.txt is missing VTBS. I don't know why, it used to work?? This is strange.

Share this post


Link to post
Share on other sites

Ok I added the line of text to my complete_airport_list.txt file.But now when I try to fetch VTBS, it shows the METAR for VTBD.http://img522.imageshack.us/img522/8224/asv65gs7.jpgThis is now what I have in complete_airport_list.txt :VTBD,013.897,100.596,9VTBH,014.944,100.641,95VTBI,014.081,101.381,80VTBK,014.090,099.915,33VTBL,014.868,100.655,98VTBP,011.785,099.796,10VTBS,13.700,100.750,3VTBT,013.239,100.956,1It's strange because in the current_weather_snapshot.txt file VTBS shows up:VTBS::VTBS 150330Z 06008KT 9999 SCT015 SCT300 31/23 Q1014 NOSIG::VTBS 142130Z 150024 06005KT 9999 FEW020 SCT120 BKN300 TEMPOThanks for your help Jim.

Share this post


Link to post
Share on other sites

Yeap, VTBS is in my wx_station_list.txt file.Changed my options to online updates and same thing. VTBS shows the VTBD METAR. Maybes something got corrupted? Should I reinstall?

Share this post


Link to post
Share on other sites

I just tried and with B552 and fetched VTBS with the following result:VTBD 212230Z 35004KT 6000 FEW020 SCT300 25/22 Q1010 NOSIG

Share this post


Link to post
Share on other sites

Create an account or sign in to comment

You need to be a member in order to leave a comment

Create an account

Sign up for a new account in our community. It's easy!

Register a new account

Sign in

Already have an account? Sign in here.

Sign In Now
Sign in to follow this